createdAt,value
2017-07-14T00:00:25.092Z,0
2017-07-14T00:01:26.460Z,0
2017-07-14T00:02:27.828Z,0
2017-07-14T00:03:29.196Z,0
2017-07-14T00:04:30.568Z,0
2017-07-14T00:05:31.940Z,0
2017-07-14T00:06:33.311Z,0
2017-07-14T00:07:34.684Z,0
2017-07-14T00:08:36.055Z,0
2017-07-14T00:09:37.426Z,0
2017-07-14T00:10:38.796Z,0
2017-07-14T00:11:40.167Z,0
2017-07-14T00:12:41.540Z,0
2017-07-14T00:13:42.911Z,0
2017-07-14T00:14:44.279Z,0
2017-07-14T00:15:45.652Z,0
2017-07-14T00:16:47.021Z,0
2017-07-14T00:17:48.387Z,0
2017-07-14T00:18:49.756Z,0
2017-07-14T00:19:51.129Z,0
2017-07-14T00:20:52.499Z,0
2017-07-14T00:21:53.871Z,0
2017-07-14T00:22:55.241Z,0
2017-07-14T00:23:56.610Z,0
2017-07-14T00:24:57.981Z,0
2017-07-14T00:25:59.350Z,0
2017-07-14T00:27:00.719Z,0
2017-07-14T00:28:02.090Z,0
2017-07-14T00:29:03.462Z,0
2017-07-14T00:30:04.834Z,0
2017-07-14T00:31:06.207Z,0
2017-07-14T00:32:07.569Z,0
2017-07-14T00:33:08.963Z,0
2017-07-14T00:34:10.311Z,0
2017-07-14T00:35:11.683Z,0
2017-07-14T00:36:13.052Z,0
2017-07-14T00:37:14.423Z,0
2017-07-14T00:38:15.792Z,0
2017-07-14T00:39:17.161Z,0
2017-07-14T00:40:18.529Z,0
2017-07-14T00:41:19.900Z,0
2017-07-14T00:42:21.272Z,0
2017-07-14T00:43:22.644Z,0
2017-07-14T00:44:24.016Z,0
2017-07-14T00:45:25.386Z,0
2017-07-14T00:46:26.755Z,0
2017-07-14T00:47:28.125Z,0
2017-07-14T00:48:29.497Z,0
2017-07-14T00:49:30.871Z,0
2017-07-14T00:50:32.240Z,0
2017-07-14T00:51:33.610Z,0
2017-07-14T00:52:34.978Z,0
2017-07-14T00:53:36.347Z,0
2017-07-14T00:54:37.718Z,0
2017-07-14T00:55:39.088Z,0
2017-07-14T00:56:40.456Z,0
2017-07-14T00:57:41.828Z,0
2017-07-14T00:58:43.199Z,0
2017-07-14T00:59:44.569Z,0
2017-07-14T01:00:45.939Z,0
2017-07-14T01:01:47.311Z,0
2017-07-14T01:02:48.678Z,0
2017-07-14T01:03:50.052Z,0
2017-07-14T01:04:51.426Z,0
2017-07-14T01:05:52.792Z,0
2017-07-14T01:06:54.162Z,0
2017-07-14T01:07:55.531Z,0
2017-07-14T01:08:56.897Z,0
2017-07-14T01:09:58.270Z,0
2017-07-14T01:10:59.639Z,0
2017-07-14T01:12:01.009Z,0
2017-07-14T01:13:02.377Z,0
2017-07-14T01:14:03.750Z,0
2017-07-14T01:15:05.123Z,0
2017-07-14T01:16:06.492Z,0
2017-07-14T01:17:07.860Z,0
2017-07-14T01:18:09.231Z,0
2017-07-14T01:19:10.603Z,0
2017-07-14T01:20:11.974Z,0
2017-07-14T01:21:13.342Z,0
2017-07-14T01:22:14.711Z,0
2017-07-14T01:23:16.082Z,0
2017-07-14T01:24:17.450Z,0
2017-07-14T01:25:18.821Z,0
2017-07-14T01:26:20.193Z,0
2017-07-14T01:27:21.565Z,0
2017-07-14T01:28:22.928Z,0
2017-07-14T01:29:24.299Z,0
2017-07-14T01:30:25.668Z,0
2017-07-14T01:31:27.038Z,0
2017-07-14T01:32:28.408Z,0
2017-07-14T01:33:29.782Z,0
2017-07-14T01:34:31.150Z,0
2017-07-14T01:35:32.518Z,0
2017-07-14T01:36:33.889Z,0
2017-07-14T01:37:35.263Z,0
2017-07-14T01:38:36.631Z,0
2017-07-14T01:39:38.002Z,0
2017-07-14T01:40:39.372Z,0
2017-07-14T01:41:40.742Z,0
2017-07-14T01:42:42.110Z,0
2017-07-14T01:43:43.477Z,0
2017-07-14T01:44:44.849Z,0
2017-07-14T01:45:46.219Z,0
2017-07-14T01:46:47.597Z,0
2017-07-14T01:47:48.970Z,0
2017-07-14T01:48:50.336Z,0
2017-07-14T01:49:51.704Z,0
2017-07-14T01:50:53.077Z,0
2017-07-14T01:51:54.444Z,0
2017-07-14T01:52:55.813Z,0
2017-07-14T01:53:57.183Z,0
2017-07-14T01:54:58.554Z,0
2017-07-14T01:55:59.924Z,0
2017-07-14T01:57:01.292Z,0
2017-07-14T01:58:02.659Z,0
2017-07-14T01:59:04.032Z,0
2017-07-14T02:00:05.400Z,0
2017-07-14T02:01:06.772Z,0
2017-07-14T02:02:08.144Z,0
2017-07-14T02:03:09.513Z,0
2017-07-14T02:04:10.882Z,0
2017-07-14T02:05:12.252Z,0
2017-07-14T02:06:13.620Z,0
2017-07-14T02:07:14.988Z,0
2017-07-14T02:08:16.360Z,0
2017-07-14T02:09:17.732Z,0
2017-07-14T02:10:19.101Z,0
2017-07-14T02:11:20.468Z,0
2017-07-14T02:12:21.837Z,0
2017-07-14T02:13:23.210Z,0
2017-07-14T02:14:24.581Z,0
2017-07-14T02:15:25.949Z,0
2017-07-14T02:16:27.322Z,0
2017-07-14T02:17:28.696Z,0
2017-07-14T02:18:30.065Z,0
2017-07-14T02:19:31.436Z,0
2017-07-14T02:20:32.807Z,0
2017-07-14T02:21:34.174Z,0
2017-07-14T02:22:35.541Z,0
2017-07-14T02:23:36.912Z,0
2017-07-14T02:24:38.284Z,0
2017-07-14T02:25:39.654Z,0
2017-07-14T02:26:41.021Z,0
2017-07-14T02:27:42.395Z,0
2017-07-14T02:28:43.765Z,0
2017-07-14T02:29:45.136Z,0
2017-07-14T02:30:46.503Z,0
2017-07-14T02:31:47.873Z,0
2017-07-14T02:32:49.242Z,0
2017-07-14T02:33:50.613Z,0
2017-07-14T02:34:51.982Z,0
2017-07-14T02:35:53.349Z,0
2017-07-14T02:36:54.721Z,0
2017-07-14T02:37:56.094Z,0
2017-07-14T02:38:57.464Z,0
2017-07-14T02:39:58.833Z,0
2017-07-14T02:41:00.199Z,0
2017-07-14T02:42:01.573Z,0
2017-07-14T02:43:02.945Z,0
2017-07-14T02:44:04.311Z,0
2017-07-14T02:45:05.682Z,0
2017-07-14T02:46:07.052Z,0
2017-07-14T02:47:08.421Z,0
2017-07-14T02:48:09.790Z,0
2017-07-14T02:49:11.160Z,0
2017-07-14T02:50:12.533Z,0
2017-07-14T02:51:13.898Z,0
2017-07-14T02:52:15.269Z,0
2017-07-14T02:53:16.640Z,0
2017-07-14T02:54:18.021Z,0
2017-07-14T02:55:19.384Z,4
2017-07-14T02:56:20.749Z,4
2017-07-14T02:57:22.118Z,4
2017-07-14T02:58:23.494Z,4
2017-07-14T02:59:24.864Z,4
2017-07-14T03:00:26.247Z,4
2017-07-14T03:01:27.616Z,4
2017-07-14T03:02:28.985Z,8
2017-07-14T03:03:30.354Z,4
2017-07-14T03:04:31.723Z,8
2017-07-14T03:05:33.095Z,12
2017-07-14T03:06:34.467Z,8
2017-07-14T03:07:35.836Z,12
2017-07-14T03:08:37.205Z,12
2017-07-14T03:09:38.584Z,16
2017-07-14T03:10:39.952Z,16
2017-07-14T03:11:41.325Z,20
2017-07-14T03:12:42.697Z,20
2017-07-14T03:13:44.068Z,24
2017-07-14T03:14:45.442Z,24
2017-07-14T03:15:46.811Z,24
2017-07-14T03:16:48.181Z,32
2017-07-14T03:17:49.553Z,32
2017-07-14T03:18:50.921Z,36
2017-07-14T03:19:52.293Z,36
2017-07-14T03:20:53.666Z,40
2017-07-14T03:21:55.034Z,44
2017-07-14T03:22:56.406Z,48
2017-07-14T03:23:57.776Z,52
2017-07-14T03:24:59.147Z,60
2017-07-14T03:26:00.520Z,60
2017-07-14T03:27:01.891Z,64
2017-07-14T03:28:03.262Z,72
2017-07-14T03:29:04.634Z,76
2017-07-14T03:30:06.002Z,80
2017-07-14T03:31:07.380Z,88
2017-07-14T03:32:08.751Z,96
2017-07-14T03:33:10.123Z,100
2017-07-14T03:34:11.496Z,108
2017-07-14T03:35:12.871Z,112
2017-07-14T03:36:14.242Z,120
2017-07-14T03:37:15.614Z,132
2017-07-14T03:38:16.987Z,140
2017-07-14T03:39:18.354Z,148
2017-07-14T03:40:19.729Z,156
2017-07-14T03:41:21.101Z,168
2017-07-14T03:42:22.473Z,176
2017-07-14T03:43:23.847Z,184
2017-07-14T03:44:25.216Z,196
2017-07-14T03:45:26.587Z,212
2017-07-14T03:46:27.962Z,224
2017-07-14T03:47:29.332Z,240
2017-07-14T03:48:30.705Z,252
2017-07-14T03:49:32.077Z,268
2017-07-14T03:50:33.471Z,288
2017-07-14T03:51:34.839Z,300
2017-07-14T03:52:36.213Z,316
2017-07-14T03:53:37.587Z,324
2017-07-14T03:54:38.957Z,340
2017-07-14T03:55:40.329Z,360
2017-07-14T03:56:41.703Z,376
2017-07-14T03:57:43.079Z,396
2017-07-14T03:58:44.444Z,416
2017-07-14T03:59:45.820Z,436
2017-07-14T04:00:47.192Z,448
2017-07-14T04:01:48.561Z,464
2017-07-14T04:02:49.934Z,480
2017-07-14T04:03:51.304Z,504
2017-07-14T04:04:52.677Z,540
2017-07-14T04:05:54.047Z,584
2017-07-14T04:06:55.421Z,616
2017-07-14T04:07:56.792Z,644
2017-07-14T04:08:58.163Z,684
2017-07-14T04:09:59.531Z,736
2017-07-14T04:11:00.908Z,776
2017-07-14T04:12:02.280Z,788
2017-07-14T04:13:03.653Z,804
2017-07-14T04:14:05.024Z,860
2017-07-14T04:15:06.397Z,960
2017-07-14T04:16:07.774Z,1004
2017-07-14T04:17:09.153Z,1012
2017-07-14T04:18:10.525Z,1020
2017-07-14T04:19:11.899Z,1044
2017-07-14T04:20:13.270Z,1108
2017-07-14T04:21:14.641Z,1272
2017-07-14T04:22:16.017Z,1204
2017-07-14T04:23:17.386Z,1180
2017-07-14T04:24:18.759Z,1508
2017-07-14T04:25:20.131Z,1752
2017-07-14T04:26:21.504Z,1760
2017-07-14T04:27:22.874Z,1572
2017-07-14T04:28:24.247Z,1476
2017-07-14T04:29:25.620Z,1796
2017-07-14T04:30:26.992Z,1528
2017-07-14T04:31:28.367Z,1520
2017-07-14T04:32:29.741Z,1944
2017-07-14T04:33:31.115Z,2104
2017-07-14T04:34:32.485Z,2164
2017-07-14T04:35:33.857Z,2200
2017-07-14T04:36:35.228Z,2268
2017-07-14T04:37:36.601Z,2348
2017-07-14T04:38:37.975Z,2576
2017-07-14T04:39:39.347Z,2672
2017-07-14T04:40:40.719Z,2716
2017-07-14T04:41:42.094Z,2856
2017-07-14T04:42:43.463Z,2952
2017-07-14T04:43:44.835Z,3016
2017-07-14T04:44:46.208Z,3124
2017-07-14T04:45:47.581Z,3344
2017-07-14T04:46:48.956Z,3568
2017-07-14T04:47:50.327Z,3704
2017-07-14T04:48:51.701Z,3784
2017-07-14T04:49:53.035Z,3796
2017-07-14T04:50:54.406Z,3800
2017-07-14T04:51:55.782Z,3816
2017-07-14T04:52:57.153Z,3844
2017-07-14T04:53:58.530Z,3904
2017-07-14T04:54:59.917Z,3868
2017-07-14T04:56:01.853Z,3808
2017-07-14T04:57:03.230Z,3848
2017-07-14T04:58:04.607Z,3860
2017-07-14T04:59:05.978Z,3900
2017-07-14T05:00:07.350Z,3948
2017-07-14T05:01:08.725Z,3932
2017-07-14T05:02:10.099Z,3864
2017-07-14T05:03:11.473Z,3764
2017-07-14T05:04:12.843Z,3808
2017-07-14T05:05:14.217Z,3936
2017-07-14T05:06:15.596Z,3992
2017-07-14T05:07:16.968Z,4052
2017-07-14T05:08:18.343Z,4132
2017-07-14T05:09:19.720Z,4308
2017-07-14T05:10:21.089Z,4404
2017-07-14T05:11:22.468Z,4568
2017-07-14T05:12:23.839Z,4696
2017-07-14T05:13:25.210Z,4796
2017-07-14T05:14:26.586Z,4916
2017-07-14T05:15:27.963Z,5056
2017-07-14T05:16:29.337Z,5216
2017-07-14T05:17:30.709Z,5256
2017-07-14T05:18:32.084Z,5336
2017-07-14T05:19:33.461Z,5488
2017-07-14T05:20:34.835Z,5572
2017-07-14T05:21:36.211Z,5612
2017-07-14T05:22:37.582Z,5660
2017-07-14T05:23:38.960Z,5700
2017-07-14T05:24:40.331Z,5736
2017-07-14T05:25:42.241Z,5784
2017-07-14T05:26:43.615Z,5828
2017-07-14T05:27:44.991Z,6092
2017-07-14T05:28:46.365Z,6852
2017-07-14T05:29:47.777Z,7792
2017-07-14T05:30:49.165Z,8408
2017-07-14T05:31:50.548Z,8600
2017-07-14T05:32:51.927Z,8608
2017-07-14T05:33:53.311Z,8944
2017-07-14T05:34:54.694Z,8952
2017-07-14T05:35:56.080Z,8712
2017-07-14T05:36:57.467Z,8892
2017-07-14T05:37:58.848Z,8936
2017-07-14T05:39:00.231Z,8832
2017-07-14T05:40:01.616Z,8660
2017-07-14T05:41:03.003Z,8652
2017-07-14T05:42:04.384Z,8876
2017-07-14T05:43:05.774Z,8664
2017-07-14T05:44:07.159Z,10280
2017-07-14T05:45:08.555Z,10264
2017-07-14T05:46:09.933Z,9972
2017-07-14T05:47:11.318Z,10064
2017-07-14T05:48:12.703Z,10488
2017-07-14T05:49:14.087Z,10524
2017-07-14T05:50:15.475Z,10152
2017-07-14T05:51:16.859Z,9920
2017-07-14T05:52:18.358Z,9544
2017-07-14T05:53:19.740Z,9172
2017-07-14T05:54:21.124Z,8704
2017-07-14T05:55:22.507Z,8148
2017-07-14T05:56:23.891Z,7604
2017-07-14T05:57:25.274Z,6540
2017-07-14T05:58:26.664Z,5664
2017-07-14T05:59:28.047Z,5640
2017-07-14T06:00:29.430Z,6000
2017-07-14T06:01:30.813Z,4248
2017-07-14T06:02:32.198Z,3876
2017-07-14T06:03:33.578Z,3816
2017-07-14T06:04:34.964Z,3680
2017-07-14T06:05:36.348Z,4548
2017-07-14T06:06:37.732Z,3308
2017-07-14T06:07:39.118Z,3204
2017-07-14T06:08:40.502Z,3464
2017-07-14T06:09:41.890Z,3260
2017-07-14T06:10:43.274Z,3336
2017-07-14T06:11:44.660Z,3600
2017-07-14T06:12:46.043Z,4120
2017-07-14T06:13:47.432Z,6548
2017-07-14T06:14:48.816Z,5684
2017-07-14T06:15:50.199Z,6352
2017-07-14T06:16:51.587Z,5792
2017-07-14T06:17:52.972Z,5080
2017-07-14T06:18:54.357Z,4316
2017-07-14T06:19:55.750Z,4240
2017-07-14T06:20:57.127Z,5536
2017-07-14T06:21:58.511Z,5308
2017-07-14T06:22:59.891Z,5300
2017-07-14T06:24:01.277Z,4660
2017-07-14T06:25:02.660Z,4500
2017-07-14T06:26:04.046Z,4024
2017-07-14T06:27:05.446Z,4608
2017-07-14T06:28:06.829Z,4492
2017-07-14T06:29:08.211Z,4448
2017-07-14T06:30:09.595Z,4348
2017-07-14T06:31:10.977Z,4276
2017-07-14T06:32:12.363Z,4276
2017-07-14T06:33:13.747Z,4256
2017-07-14T06:34:15.134Z,4220
2017-07-14T06:35:16.524Z,4108
2017-07-14T06:36:17.905Z,4024
2017-07-14T06:37:19.290Z,3964
2017-07-14T06:38:20.674Z,3944
2017-07-14T06:39:22.059Z,4060
2017-07-14T06:40:23.449Z,4152
2017-07-14T06:41:24.847Z,4180
2017-07-14T06:42:26.233Z,4188
2017-07-14T06:43:27.617Z,4112
2017-07-14T06:44:29.001Z,4068
2017-07-14T06:45:30.383Z,4012
2017-07-14T06:46:31.769Z,3932
2017-07-14T06:47:33.153Z,3988
2017-07-14T06:48:34.538Z,4112
2017-07-14T06:49:35.927Z,4156
2017-07-14T06:50:37.313Z,4084
2017-07-14T06:51:38.693Z,4068
2017-07-14T06:52:40.080Z,4076
2017-07-14T06:53:41.461Z,4116
2017-07-14T06:54:42.849Z,4040
2017-07-14T06:55:44.235Z,4012
2017-07-14T06:56:45.621Z,3924
2017-07-14T06:57:47.004Z,3832
2017-07-14T06:58:48.385Z,3768
2017-07-14T06:59:49.802Z,3744
2017-07-14T07:00:51.187Z,3764
2017-07-14T07:01:52.581Z,3792
2017-07-14T07:02:53.965Z,3840
2017-07-14T07:03:55.353Z,3868
2017-07-14T07:04:56.738Z,3900
2017-07-14T07:05:58.124Z,3936
2017-07-14T07:06:59.508Z,3960
2017-07-14T07:08:00.894Z,3956
2017-07-14T07:09:02.276Z,3964
2017-07-14T07:10:03.660Z,3996
2017-07-14T07:11:05.045Z,4044
2017-07-14T07:12:06.427Z,4084
2017-07-14T07:13:07.812Z,4084
2017-07-14T07:14:09.193Z,4064
2017-07-14T07:15:10.580Z,4004
2017-07-14T07:16:11.964Z,3940
2017-07-14T07:17:13.350Z,3880
2017-07-14T07:18:14.741Z,3796
2017-07-14T07:19:16.121Z,3696
2017-07-14T07:20:17.506Z,3616
2017-07-14T07:21:18.886Z,3540
2017-07-14T07:22:20.272Z,3484
2017-07-14T07:23:21.657Z,3444
2017-07-14T07:24:23.045Z,3396
2017-07-14T07:25:24.433Z,3328
2017-07-14T07:26:25.817Z,3240
2017-07-14T07:27:27.197Z,3192
2017-07-14T07:28:28.583Z,3180
2017-07-14T07:29:29.964Z,3200
2017-07-14T07:30:31.348Z,3204
2017-07-14T07:31:32.733Z,3200
2017-07-14T07:32:34.117Z,3160
2017-07-14T07:33:35.497Z,3120
2017-07-14T07:34:36.891Z,3084
2017-07-14T07:35:38.281Z,3064
2017-07-14T07:36:39.675Z,3056
2017-07-14T07:37:41.048Z,3024
2017-07-14T07:38:42.442Z,2988
2017-07-14T07:39:43.823Z,2952
2017-07-14T07:40:45.215Z,2912
2017-07-14T07:41:46.591Z,2868
2017-07-14T07:42:47.986Z,2844
2017-07-14T07:43:49.375Z,2820
2017-07-14T07:44:50.757Z,2792
2017-07-14T07:45:52.147Z,2780
2017-07-14T07:46:53.529Z,2772
2017-07-14T07:47:54.917Z,2772
2017-07-14T07:48:56.302Z,2772
2017-07-14T07:49:57.683Z,2768
2017-07-14T07:50:59.067Z,2816
2017-07-14T07:52:00.455Z,2908
2017-07-14T07:53:01.847Z,2968
2017-07-14T07:54:03.228Z,3092
2017-07-14T07:55:04.612Z,3196
2017-07-14T07:56:05.997Z,3312
2017-07-14T07:57:07.387Z,3452
2017-07-14T07:58:08.775Z,3600
2017-07-14T07:59:10.159Z,3784
2017-07-14T08:00:11.543Z,3876
2017-07-14T08:01:12.933Z,3820
2017-07-14T08:02:14.318Z,3920
2017-07-14T08:03:15.703Z,3868
2017-07-14T08:04:17.084Z,3744
2017-07-14T08:05:18.478Z,3696
2017-07-14T08:06:19.859Z,3688
2017-07-14T08:07:21.263Z,3616
2017-07-14T08:08:22.649Z,3648
2017-07-14T08:09:24.032Z,3548
2017-07-14T08:10:25.424Z,3496
2017-07-14T08:11:26.807Z,3492
2017-07-14T08:12:28.193Z,3588
2017-07-14T08:13:29.575Z,3580
2017-07-14T08:14:30.973Z,3456
2017-07-14T08:15:32.363Z,3236
2017-07-14T08:16:33.757Z,3280
2017-07-14T08:17:35.150Z,3416
2017-07-14T08:18:36.546Z,3256
2017-07-14T08:19:37.954Z,3152
2017-07-14T08:20:39.347Z,2984
2017-07-14T08:21:40.745Z,2884
2017-07-14T08:22:42.132Z,2852
2017-07-14T08:23:43.512Z,2800
2017-07-14T08:24:44.910Z,2744
2017-07-14T08:25:46.305Z,2716
2017-07-14T08:26:47.704Z,2700
2017-07-14T08:27:49.107Z,2688
2017-07-14T08:28:50.505Z,2740
2017-07-14T08:29:51.910Z,2820
2017-07-14T08:30:53.307Z,2820
2017-07-14T08:31:54.709Z,2824
2017-07-14T08:32:56.107Z,2956
2017-07-14T08:33:57.516Z,3232
2017-07-14T08:34:58.903Z,3576
2017-07-14T08:36:00.277Z,3468
2017-07-14T08:37:01.652Z,3220
2017-07-14T08:38:03.028Z,3004
2017-07-14T08:39:04.401Z,2920
2017-07-14T08:40:05.778Z,2896
2017-07-14T08:41:07.155Z,2884
2017-07-14T08:42:08.530Z,2860
2017-07-14T08:43:09.908Z,2832
2017-07-14T08:44:11.284Z,2812
2017-07-14T08:45:12.659Z,2820
2017-07-14T08:46:14.036Z,2872
2017-07-14T08:47:15.408Z,2948
2017-07-14T08:48:16.782Z,3056
2017-07-14T08:49:18.158Z,3232
2017-07-14T08:50:19.532Z,3544
2017-07-14T08:51:20.908Z,4284
2017-07-14T08:52:22.283Z,5000
2017-07-14T08:53:23.664Z,5824
2017-07-14T08:54:25.034Z,6556
2017-07-14T08:55:26.409Z,6956
2017-07-14T08:56:27.786Z,7028
2017-07-14T08:57:29.163Z,6784
2017-07-14T08:58:30.540Z,6560
2017-07-14T08:59:31.914Z,6320
2017-07-14T09:00:33.288Z,6112
2017-07-14T09:01:34.663Z,6004
2017-07-14T09:02:36.037Z,5928
2017-07-14T09:03:37.410Z,5620
2017-07-14T09:04:38.788Z,5260
2017-07-14T09:05:40.161Z,4772
2017-07-14T09:06:41.537Z,4524
2017-07-14T09:07:42.910Z,4804
2017-07-14T09:08:44.285Z,5040
2017-07-14T09:09:45.660Z,5124
2017-07-14T09:10:47.040Z,5072
2017-07-14T09:11:48.413Z,5004
2017-07-14T09:12:49.789Z,4952
2017-07-14T09:13:51.163Z,4956
2017-07-14T09:14:52.540Z,4944
2017-07-14T09:15:53.915Z,4988
2017-07-14T09:16:55.294Z,5192
2017-07-14T09:17:56.666Z,5480
2017-07-14T09:18:58.040Z,5604
2017-07-14T09:19:59.417Z,5496
2017-07-14T09:21:00.790Z,5272
2017-07-14T09:22:02.162Z,4996
2017-07-14T09:23:03.537Z,4672
2017-07-14T09:24:04.915Z,4576
2017-07-14T09:25:06.288Z,3856
2017-07-14T09:26:07.665Z,3736
2017-07-14T09:27:09.045Z,3640
2017-07-14T09:28:10.416Z,3792
2017-07-14T09:29:11.791Z,3984
2017-07-14T09:30:13.166Z,4240
2017-07-14T09:31:14.544Z,4436
2017-07-14T09:32:15.925Z,4600
2017-07-14T09:33:17.304Z,4684
2017-07-14T09:34:18.687Z,4760
2017-07-14T09:35:20.057Z,4832
2017-07-14T09:36:21.435Z,4828
2017-07-14T09:37:22.812Z,4884
2017-07-14T09:38:24.185Z,5092
2017-07-14T09:39:25.559Z,5280
2017-07-14T09:40:26.936Z,5264
2017-07-14T09:41:28.315Z,5396
2017-07-14T09:42:29.696Z,5316
2017-07-14T09:43:31.071Z,5000
2017-07-14T09:44:32.453Z,4568
2017-07-14T09:45:33.825Z,4364
2017-07-14T09:46:35.198Z,4376
2017-07-14T09:47:36.580Z,4072
2017-07-14T09:48:37.976Z,4132
2017-07-14T09:49:39.338Z,4620
2017-07-14T09:50:40.714Z,4784
2017-07-14T09:51:42.094Z,4660
2017-07-14T09:52:43.473Z,4352
2017-07-14T09:53:44.849Z,4100
2017-07-14T09:54:46.224Z,3912
2017-07-14T09:55:47.599Z,4020
2017-07-14T09:56:48.971Z,4084
2017-07-14T09:57:50.347Z,4048
2017-07-14T09:58:51.724Z,3916
2017-07-14T09:59:53.100Z,3624
2017-07-14T10:00:54.475Z,3320
2017-07-14T10:01:55.857Z,3336
2017-07-14T10:02:57.231Z,3580
2017-07-14T10:03:58.618Z,3696
2017-07-14T10:04:59.991Z,3640
2017-07-14T10:06:01.364Z,3604
2017-07-14T10:07:02.740Z,3536
2017-07-14T10:08:04.140Z,3420
2017-07-14T10:09:05.495Z,3296
2017-07-14T10:10:06.869Z,3684
2017-07-14T10:11:08.245Z,4452
2017-07-14T10:12:09.616Z,5112
2017-07-14T10:13:10.989Z,5852
2017-07-14T10:14:12.368Z,6220
2017-07-14T10:15:13.742Z,5984
2017-07-14T10:16:15.119Z,5748
2017-07-14T10:17:16.498Z,5820
2017-07-14T10:18:17.874Z,5680
2017-07-14T10:19:19.247Z,5360
2017-07-14T10:20:20.654Z,4604
2017-07-14T10:21:22.073Z,4088
2017-07-14T10:22:23.452Z,3768
2017-07-14T10:23:24.835Z,3668
2017-07-14T10:24:26.217Z,3796
2017-07-14T10:25:27.594Z,4108
2017-07-14T10:26:28.967Z,4440
2017-07-14T10:27:30.347Z,4668
2017-07-14T10:28:31.725Z,4736
2017-07-14T10:29:33.104Z,4764
2017-07-14T10:30:34.477Z,5000
2017-07-14T10:31:35.855Z,5024
2017-07-14T10:32:37.229Z,4700
2017-07-14T10:33:38.601Z,4296
2017-07-14T10:34:39.980Z,4176
2017-07-14T10:35:41.358Z,4076
2017-07-14T10:36:42.736Z,4044
2017-07-14T10:37:44.110Z,3856
2017-07-14T10:38:45.491Z,3704
2017-07-14T10:39:46.862Z,3732
2017-07-14T10:40:48.247Z,3864
2017-07-14T10:41:49.711Z,3700
2017-07-14T10:42:51.087Z,3316
2017-07-14T10:43:52.463Z,3284
2017-07-14T10:44:53.840Z,3404
2017-07-14T10:45:55.217Z,3496
2017-07-14T10:46:56.592Z,3440
2017-07-14T10:47:57.967Z,3384
2017-07-14T10:48:59.345Z,3336
2017-07-14T10:50:00.719Z,3456
2017-07-14T10:51:02.104Z,3552
2017-07-14T10:52:03.474Z,3516
2017-07-14T10:53:04.851Z,3460
2017-07-14T10:54:06.225Z,3412
2017-07-14T10:55:07.607Z,3272
2017-07-14T10:56:08.990Z,3060
2017-07-14T10:57:10.359Z,2868
2017-07-14T10:58:11.737Z,2716
2017-07-14T10:59:13.113Z,2552
2017-07-14T11:00:14.491Z,2396
2017-07-14T11:01:16.201Z,2276
2017-07-14T11:02:17.581Z,2044
2017-07-14T11:03:18.958Z,1924
2017-07-14T11:04:20.331Z,2392
2017-07-14T11:05:21.707Z,2764
2017-07-14T11:06:23.082Z,2836
2017-07-14T11:07:24.462Z,2732
2017-07-14T11:08:25.837Z,2636
2017-07-14T11:09:27.210Z,2388
2017-07-14T11:10:28.586Z,2276
2017-07-14T11:11:29.961Z,2528
2017-07-14T11:12:31.334Z,3012
2017-07-14T11:13:32.714Z,3116
2017-07-14T11:14:34.092Z,3160
2017-07-14T11:15:35.480Z,2940
2017-07-14T11:16:36.851Z,3108
2017-07-14T11:17:38.226Z,3272
2017-07-14T11:18:39.602Z,3412
2017-07-14T11:19:40.978Z,3412
2017-07-14T11:20:42.357Z,3892
2017-07-14T11:21:43.737Z,4760
2017-07-14T11:22:45.116Z,5424
2017-07-14T11:23:46.491Z,6004
2017-07-14T11:24:47.865Z,6368
2017-07-14T11:25:49.304Z,6628
2017-07-14T11:26:50.686Z,6140
2017-07-14T11:27:52.063Z,5360
2017-07-14T11:28:53.443Z,4800
2017-07-14T11:29:54.814Z,4652
2017-07-14T11:30:56.188Z,4864
2017-07-14T11:31:57.566Z,4960
2017-07-14T11:32:58.941Z,4704
2017-07-14T11:34:00.317Z,4272
2017-07-14T11:35:01.693Z,3608
2017-07-14T11:36:03.070Z,3268
2017-07-14T11:37:04.444Z,3080
2017-07-14T11:38:05.820Z,3132
2017-07-14T11:39:07.196Z,3164
2017-07-14T11:40:08.573Z,3244
2017-07-14T11:41:09.947Z,3228
2017-07-14T11:42:11.327Z,3156
2017-07-14T11:43:12.702Z,3152
2017-07-14T11:44:14.075Z,3312
2017-07-14T11:45:15.450Z,3416
2017-07-14T11:46:16.829Z,3460
2017-07-14T11:47:18.203Z,3548
2017-07-14T11:48:19.578Z,3632
2017-07-14T11:49:20.954Z,3496
2017-07-14T11:50:22.329Z,3512
2017-07-14T11:51:23.703Z,3580
2017-07-14T11:52:25.076Z,3576
2017-07-14T11:53:26.450Z,3652
2017-07-14T11:54:27.843Z,3868
2017-07-14T11:55:29.215Z,4204
2017-07-14T11:56:30.609Z,4684
2017-07-14T11:57:31.986Z,4980
2017-07-14T11:58:33.362Z,5180
2017-07-14T11:59:34.737Z,5212
2017-07-14T12:00:36.110Z,4944
2017-07-14T12:01:37.486Z,4976
2017-07-14T12:02:38.862Z,4796
2017-07-14T12:03:40.233Z,4692
2017-07-14T12:04:41.611Z,4532
2017-07-14T12:05:42.984Z,4340
2017-07-14T12:06:44.355Z,3868
2017-07-14T12:07:45.731Z,3688
2017-07-14T12:08:47.108Z,3760
2017-07-14T12:09:48.487Z,3952
2017-07-14T12:10:49.865Z,4036
2017-07-14T12:11:51.239Z,3968
2017-07-14T12:12:52.613Z,3612
2017-07-14T12:13:53.987Z,3200
2017-07-14T12:14:55.361Z,2716
2017-07-14T12:15:56.736Z,2544
2017-07-14T12:16:58.109Z,2456
2017-07-14T12:17:59.488Z,2424
2017-07-14T12:19:00.862Z,2844
2017-07-14T12:20:02.235Z,3184
2017-07-14T12:21:03.609Z,3256
2017-07-14T12:22:04.985Z,3616
2017-07-14T12:23:06.357Z,3800
2017-07-14T12:24:07.733Z,3704
2017-07-14T12:25:09.113Z,3372
2017-07-14T12:26:10.490Z,3276
2017-07-14T12:27:11.870Z,3504
2017-07-14T12:28:13.240Z,3952
2017-07-14T12:29:14.616Z,4340
2017-07-14T12:30:15.990Z,4684
2017-07-14T12:31:17.364Z,4684
2017-07-14T12:32:18.739Z,4764
2017-07-14T12:33:20.117Z,4808
2017-07-14T12:34:21.491Z,4800
2017-07-14T12:35:22.864Z,4764
2017-07-14T12:36:24.242Z,4432
2017-07-14T12:37:25.615Z,4368
2017-07-14T12:38:26.993Z,4556
2017-07-14T12:39:28.369Z,4736
2017-07-14T12:40:29.743Z,4776
2017-07-14T12:41:31.115Z,4732
2017-07-14T12:42:32.490Z,4628
2017-07-14T12:43:33.869Z,4736
2017-07-14T12:44:35.243Z,5140
2017-07-14T12:45:36.620Z,5300
2017-07-14T12:46:37.995Z,5296
2017-07-14T12:47:39.373Z,5176
2017-07-14T12:48:40.748Z,5084
2017-07-14T12:49:42.120Z,5056
2017-07-14T12:50:43.497Z,5176
2017-07-14T12:51:44.873Z,5324
2017-07-14T12:52:46.250Z,5440
2017-07-14T12:53:47.623Z,5448
2017-07-14T12:54:49.001Z,5464
2017-07-14T12:55:50.375Z,5332
2017-07-14T12:56:51.747Z,5176
2017-07-14T12:57:53.128Z,4812
2017-07-14T12:58:54.505Z,4496
2017-07-14T12:59:55.883Z,4428
2017-07-14T13:00:57.257Z,5172
2017-07-14T13:01:58.635Z,4960
2017-07-14T13:03:00.009Z,4156
2017-07-14T13:04:01.383Z,3736
2017-07-14T13:05:02.756Z,3100
2017-07-14T13:06:04.132Z,3780
2017-07-14T13:07:05.515Z,3904
2017-07-14T13:08:06.891Z,3556
2017-07-14T13:09:08.266Z,4048
2017-07-14T13:10:09.638Z,4652
2017-07-14T13:11:11.019Z,4772
2017-07-14T13:12:12.393Z,4772
2017-07-14T13:13:13.771Z,4656
2017-07-14T13:14:15.148Z,4808
2017-07-14T13:15:16.523Z,5008
2017-07-14T13:16:17.900Z,4964
2017-07-14T13:17:19.273Z,4588
2017-07-14T13:18:20.647Z,4560
2017-07-14T13:19:22.022Z,4088
2017-07-14T13:20:23.398Z,3868
2017-07-14T13:21:24.771Z,4012
2017-07-14T13:22:26.177Z,4444
2017-07-14T13:23:27.529Z,4816
2017-07-14T13:24:28.903Z,4952
2017-07-14T13:25:30.279Z,5012
2017-07-14T13:26:31.655Z,5076
2017-07-14T13:27:33.030Z,5004
2017-07-14T13:28:34.401Z,4824
2017-07-14T13:29:35.779Z,4664
2017-07-14T13:30:37.153Z,4364
2017-07-14T13:31:38.524Z,4408
2017-07-14T13:32:39.896Z,4488
2017-07-14T13:33:41.277Z,4220
2017-07-14T13:34:42.653Z,3820
2017-07-14T13:35:44.027Z,3476
2017-07-14T13:36:45.404Z,2824
2017-07-14T13:37:46.780Z,2680
2017-07-14T13:38:48.153Z,1872
2017-07-14T13:39:49.529Z,1984
2017-07-14T13:40:50.902Z,2312
2017-07-14T13:41:52.277Z,2260
2017-07-14T13:42:53.655Z,2688
2017-07-14T13:43:55.040Z,2968
2017-07-14T13:44:56.408Z,3492
2017-07-14T13:45:57.784Z,3964
2017-07-14T13:46:59.163Z,4236
2017-07-14T13:48:00.534Z,4432
2017-07-14T13:49:01.909Z,4228
2017-07-14T13:50:03.395Z,3784
2017-07-14T13:51:04.776Z,3504
2017-07-14T13:52:06.149Z,3264
2017-07-14T13:53:07.527Z,3056
2017-07-14T13:54:10.738Z,2884
2017-07-14T13:55:12.113Z,2816
2017-07-14T13:56:13.491Z,2704
2017-07-14T13:57:14.860Z,2664
2017-07-14T13:58:16.236Z,2708